sensor_id;sensor_type;location;lat;lon;timestamp;P1;durP1;ratioP1;P2;durP2;ratioP2
9643;SDS011;4860;50.900;4.720;2023-07-22T00:00:11;0.10;;;0.10;;
9643;SDS011;4860;50.900;4.720;2023-07-22T00:02:39;0.10;;;0.10;;
9643;SDS011;4860;50.900;4.720;2023-07-22T00:05:05;0.13;;;0.13;;
9643;SDS011;4860;50.900;4.720;2023-07-22T00:07:31;0.10;;;0.10;;
9643;SDS011;4860;50.900;4.720;2023-07-22T00:09:58;0.10;;;0.10;;
9643;SDS011;4860;50.900;4.720;2023-07-22T00:12:25;0.10;;;0.10;;
9643;SDS011;4860;50.900;4.720;2023-07-22T00:14:52;0.10;;;0.10;;
9643;SDS011;4860;50.900;4.720;2023-07-22T00:17:21;0.10;;;0.10;;
9643;SDS011;4860;50.900;4.720;2023-07-22T00:19:47;0.10;;;0.10;;
9643;SDS011;4860;50.900;4.720;2023-07-22T00:22:14;0.10;;;0.10;;
9643;SDS011;4860;50.900;4.720;2023-07-22T00:24:43;0.13;;;0.13;;
9643;SDS011;4860;50.900;4.720;2023-07-22T00:27:09;0.10;;;0.10;;
9643;SDS011;4860;50.900;4.720;2023-07-22T00:29:35;0.20;;;0.20;;
9643;SDS011;4860;50.900;4.720;2023-07-22T00:32:01;0.10;;;0.10;;
9643;SDS011;4860;50.900;4.720;2023-07-22T00:34:27;0.20;;;0.20;;
9643;SDS011;4860;50.900;4.720;2023-07-22T00:36:54;0.20;;;0.20;;
9643;SDS011;4860;50.900;4.720;2023-07-22T00:39:20;0.10;;;0.10;;
9643;SDS011;4860;50.900;4.720;2023-07-22T00:41:46;0.10;;;0.10;;
9643;SDS011;4860;50.900;4.720;2023-07-22T00:44:12;0.20;;;0.20;;
9643;SDS011;4860;50.900;4.720;2023-07-22T00:46:39;0.20;;;0.20;;
9643;SDS011;4860;50.900;4.720;2023-07-22T00:49:06;0.10;;;0.10;;
9643;SDS011;4860;50.900;4.720;2023-07-22T00:51:33;0.10;;;0.10;;
9643;SDS011;4860;50.900;4.720;2023-07-22T00:53:59;0.20;;;0.20;;
9643;SDS011;4860;50.900;4.720;2023-07-22T00:56:25;0.10;;;0.10;;
9643;SDS011;4860;50.900;4.720;2023-07-22T00:58:52;0.20;;;0.20;;
9643;SDS011;4860;50.900;4.720;2023-07-22T01:01:18;0.20;;;0.20;;
9643;SDS011;4860;50.900;4.720;2023-07-22T01:03:44;0.13;;;0.13;;
9643;SDS011;4860;50.900;4.720;2023-07-22T01:06:11;0.20;;;0.20;;
9643;SDS011;4860;50.900;4.720;2023-07-22T01:08:38;0.10;;;0.10;;
9643;SDS011;4860;50.900;4.720;2023-07-22T01:11:05;0.10;;;0.10;;
9643;SDS011;4860;50.900;4.720;2023-07-22T01:13:31;0.10;;;0.10;;
9643;SDS011;4860;50.900;4.720;2023-07-22T01:15:57;0.10;;;0.10;;
9643;SDS011;4860;50.900;4.720;2023-07-22T01:18:24;0.10;;;0.10;;
9643;SDS011;4860;50.900;4.720;2023-07-22T01:20:50;0.10;;;0.10;;
9643;SDS011;4860;50.900;4.720;2023-07-22T01:23:16;0.10;;;0.10;;
9643;SDS011;4860;50.900;4.720;2023-07-22T01:25:43;0.10;;;0.10;;
9643;SDS011;4860;50.900;4.720;2023-07-22T01:28:09;0.10;;;0.10;;
9643;SDS011;4860;50.900;4.720;2023-07-22T01:30:36;0.10;;;0.10;;
9643;SDS011;4860;50.900;4.720;2023-07-22T01:33:02;0.10;;;0.10;;
9643;SDS011;4860;50.900;4.720;2023-07-22T01:35:28;0.10;;;0.10;;
9643;SDS011;4860;50.900;4.720;2023-07-22T01:37:54;0.10;;;0.10;;
9643;SDS011;4860;50.900;4.720;2023-07-22T01:40:20;0.10;;;0.10;;
9643;SDS011;4860;50.900;4.720;2023-07-22T01:42:48;0.10;;;0.10;;
9643;SDS011;4860;50.900;4.720;2023-07-22T01:45:14;0.10;;;0.10;;
9643;SDS011;4860;50.900;4.720;2023-07-22T01:47:41;0.10;;;0.10;;
9643;SDS011;4860;50.900;4.720;2023-07-22T01:50:07;0.10;;;0.10;;
9643;SDS011;4860;50.900;4.720;2023-07-22T01:52:34;0.10;;;0.10;;
9643;SDS011;4860;50.900;4.720;2023-07-22T01:55:00;0.10;;;0.10;;
9643;SDS011;4860;50.900;4.720;2023-07-22T01:57:26;0.10;;;0.10;;
9643;SDS011;4860;50.900;4.720;2023-07-22T01:59:52;0.10;;;0.10;;
9643;SDS011;4860;50.900;4.720;2023-07-22T02:02:19;0.10;;;0.10;;
9643;SDS011;4860;50.900;4.720;2023-07-22T02:04:45;0.10;;;0.10;;
9643;SDS011;4860;50.900;4.720;2023-07-22T02:07:11;0.10;;;0.10;;
9643;SDS011;4860;50.900;4.720;2023-07-22T02:09:37;0.10;;;0.10;;
9643;SDS011;4860;50.900;4.720;2023-07-22T02:12:03;0.15;;;0.15;;
9643;SDS011;4860;50.900;4.720;2023-07-22T02:14:31;0.10;;;0.10;;
9643;SDS011;4860;50.900;4.720;2023-07-22T02:16:57;0.10;;;0.10;;
9643;SDS011;4860;50.900;4.720;2023-07-22T02:19:23;0.10;;;0.10;;
9643;SDS011;4860;50.900;4.720;2023-07-22T02:21:50;0.10;;;0.10;;
9643;SDS011;4860;50.900;4.720;2023-07-22T02:24:16;0.10;;;0.10;;
9643;SDS011;4860;50.900;4.720;2023-07-22T02:26:43;0.10;;;0.10;;
9643;SDS011;4860;50.900;4.720;2023-07-22T02:29:10;0.10;;;0.10;;
9643;SDS011;4860;50.900;4.720;2023-07-22T02:31:37;0.10;;;0.10;;
9643;SDS011;4860;50.900;4.720;2023-07-22T02:34:04;0.20;;;0.20;;
9643;SDS011;4860;50.900;4.720;2023-07-22T02:36:31;0.10;;;0.10;;
9643;SDS011;4860;50.900;4.720;2023-07-22T02:38:57;0.10;;;0.10;;
9643;SDS011;4860;50.900;4.720;2023-07-22T02:41:23;0.10;;;0.10;;
9643;SDS011;4860;50.900;4.720;2023-07-22T02:43:49;0.10;;;0.10;;
9643;SDS011;4860;50.900;4.720;2023-07-22T02:46:15;0.10;;;0.10;;
9643;SDS011;4860;50.900;4.720;2023-07-22T02:48:43;0.17;;;0.17;;
9643;SDS011;4860;50.900;4.720;2023-07-22T02:51:09;0.10;;;0.10;;
9643;SDS011;4860;50.900;4.720;2023-07-22T02:53:35;0.20;;;0.20;;
9643;SDS011;4860;50.900;4.720;2023-07-22T02:56:02;0.17;;;0.17;;
9643;SDS011;4860;50.900;4.720;2023-07-22T02:58:28;0.13;;;0.13;;
9643;SDS011;4860;50.900;4.720;2023-07-22T03:00:54;0.10;;;0.10;;
9643;SDS011;4860;50.900;4.720;2023-07-22T03:03:22;0.10;;;0.10;;
9643;SDS011;4860;50.900;4.720;2023-07-22T03:05:49;0.10;;;0.10;;
9643;SDS011;4860;50.900;4.720;2023-07-22T03:08:16;0.20;;;0.20;;
9643;SDS011;4860;50.900;4.720;2023-07-22T03:10:43;0.10;;;0.10;;
9643;SDS011;4860;50.900;4.720;2023-07-22T03:13:16;0.10;;;0.10;;
9643;SDS011;4860;50.900;4.720;2023-07-22T03:15:42;0.20;;;0.20;;
9643;SDS011;4860;50.900;4.720;2023-07-22T03:18:09;0.10;;;0.10;;
9643;SDS011;4860;50.900;4.720;2023-07-22T03:20:39;0.10;;;0.10;;
9643;SDS011;4860;50.900;4.720;2023-07-22T03:23:06;0.10;;;0.10;;
9643;SDS011;4860;50.900;4.720;2023-07-22T03:25:33;0.10;;;0.10;;
9643;SDS011;4860;50.900;4.720;2023-07-22T03:28:03;0.10;;;0.10;;
9643;SDS011;4860;50.900;4.720;2023-07-22T03:30:30;0.20;;;0.20;;
9643;SDS011;4860;50.900;4.720;2023-07-22T03:32:56;0.20;;;0.20;;
9643;SDS011;4860;50.900;4.720;2023-07-22T03:35:22;0.20;;;0.20;;
9643;SDS011;4860;50.900;4.720;2023-07-22T03:37:49;0.10;;;0.10;;
9643;SDS011;4860;50.900;4.720;2023-07-22T03:40:15;0.10;;;0.10;;
9643;SDS011;4860;50.900;4.720;2023-07-22T03:42:55;0.20;;;0.20;;
9643;SDS011;4860;50.900;4.720;2023-07-22T03:45:22;0.20;;;0.20;;
9643;SDS011;4860;50.900;4.720;2023-07-22T03:47:52;0.10;;;0.10;;
9643;SDS011;4860;50.900;4.720;2023-07-22T03:50:19;0.10;;;0.10;;
9643;SDS011;4860;50.900;4.720;2023-07-22T03:52:45;0.10;;;0.10;;
9643;SDS011;4860;50.900;4.720;2023-07-22T03:55:12;0.10;;;0.10;;
9643;SDS011;4860;50.900;4.720;2023-07-22T03:57:38;0.15;;;0.15;;
9643;SDS011;4860;50.900;4.720;2023-07-22T04:00:05;0.17;;;0.17;;
9643;SDS011;4860;50.900;4.720;2023-07-22T04:02:34;0.10;;;0.10;;
9643;SDS011;4860;50.900;4.720;2023-07-22T04:05:00;0.20;;;0.20;;
9643;SDS011;4860;50.900;4.720;2023-07-22T04:07:27;0.20;;;0.20;;
9643;SDS011;4860;50.900;4.720;2023-07-22T04:09:53;0.20;;;0.20;;
9643;SDS011;4860;50.900;4.720;2023-07-22T04:12:19;0.20;;;0.20;;
9643;SDS011;4860;50.900;4.720;2023-07-22T04:14:45;0.10;;;0.10;;
9643;SDS011;4860;50.900;4.720;2023-07-22T04:17:11;0.10;;;0.10;;
9643;SDS011;4860;50.900;4.720;2023-07-22T04:19:37;0.10;;;0.10;;
9643;SDS011;4860;50.900;4.720;2023-07-22T04:22:04;0.10;;;0.10;;
9643;SDS011;4860;50.900;4.720;2023-07-22T04:24:31;0.20;;;0.20;;
9643;SDS011;4860;50.900;4.720;2023-07-22T04:26:57;0.10;;;0.10;;
9643;SDS011;4860;50.900;4.720;2023-07-22T04:29:23;0.10;;;0.10;;
9643;SDS011;4860;50.900;4.720;2023-07-22T04:31:50;0.10;;;0.10;;
9643;SDS011;4860;50.900;4.720;2023-07-22T04:34:16;0.10;;;0.10;;
9643;SDS011;4860;50.900;4.720;2023-07-22T04:36:42;0.10;;;0.10;;
9643;SDS011;4860;50.900;4.720;2023-07-22T04:39:08;0.10;;;0.10;;
9643;SDS011;4860;50.900;4.720;2023-07-22T04:41:34;0.13;;;0.13;;
9643;SDS011;4860;50.900;4.720;2023-07-22T04:44:01;0.10;;;0.10;;
9643;SDS011;4860;50.900;4.720;2023-07-22T04:46:27;0.10;;;0.10;;
9643;SDS011;4860;50.900;4.720;2023-07-22T04:48:54;0.10;;;0.10;;
9643;SDS011;4860;50.900;4.720;2023-07-22T04:51:20;0.10;;;0.10;;
9643;SDS011;4860;50.900;4.720;2023-07-22T04:53:46;0.10;;;0.10;;
9643;SDS011;4860;50.900;4.720;2023-07-22T04:56:13;0.10;;;0.10;;
9643;SDS011;4860;50.900;4.720;2023-07-22T04:58:39;0.10;;;0.10;;
9643;SDS011;4860;50.900;4.720;2023-07-22T05:01:05;0.15;;;0.15;;
9643;SDS011;4860;50.900;4.720;2023-07-22T05:03:31;0.10;;;0.10;;
9643;SDS011;4860;50.900;4.720;2023-07-22T05:05:57;0.10;;;0.10;;
9643;SDS011;4860;50.900;4.720;2023-07-22T05:08:23;0.10;;;0.10;;
9643;SDS011;4860;50.900;4.720;2023-07-22T05:10:50;0.10;;;0.10;;
9643;SDS011;4860;50.900;4.720;2023-07-22T05:13:16;0.10;;;0.10;;
9643;SDS011;4860;50.900;4.720;2023-07-22T05:15:42;0.10;;;0.10;;
9643;SDS011;4860;50.900;4.720;2023-07-22T05:18:08;0.17;;;0.17;;
9643;SDS011;4860;50.900;4.720;2023-07-22T05:20:34;0.10;;;0.10;;
9643;SDS011;4860;50.900;4.720;2023-07-22T05:23:00;0.10;;;0.10;;
9643;SDS011;4860;50.900;4.720;2023-07-22T05:25:26;0.10;;;0.10;;
9643;SDS011;4860;50.900;4.720;2023-07-22T05:27:53;0.10;;;0.10;;
9643;SDS011;4860;50.900;4.720;2023-07-22T05:30:19;0.10;;;0.10;;
9643;SDS011;4860;50.900;4.720;2023-07-22T05:32:45;0.10;;;0.10;;
9643;SDS011;4860;50.900;4.720;2023-07-22T05:35:11;0.03;;;0.03;;
9643;SDS011;4860;50.900;4.720;2023-07-22T05:37:37;0.10;;;0.10;;
9643;SDS011;4860;50.900;4.720;2023-07-22T05:40:04;0.10;;;0.10;;
9643;SDS011;4860;50.900;4.720;2023-07-22T05:42:32;0.10;;;0.10;;
9643;SDS011;4860;50.900;4.720;2023-07-22T05:44:58;0.10;;;0.10;;
9643;SDS011;4860;50.900;4.720;2023-07-22T05:47:26;0.10;;;0.10;;
9643;SDS011;4860;50.900;4.720;2023-07-22T05:49:52;0.10;;;0.10;;
9643;SDS011;4860;50.900;4.720;2023-07-22T05:52:18;0.10;;;0.10;;
9643;SDS011;4860;50.900;4.720;2023-07-22T05:54:44;0.10;;;0.10;;
9643;SDS011;4860;50.900;4.720;2023-07-22T05:57:10;0.10;;;0.10;;
9643;SDS011;4860;50.900;4.720;2023-07-22T05:59:36;0.10;;;0.10;;
9643;SDS011;4860;50.900;4.720;2023-07-22T06:02:05;0.10;;;0.10;;
9643;SDS011;4860;50.900;4.720;2023-07-22T06:04:33;0.10;;;0.10;;
9643;SDS011;4860;50.900;4.720;2023-07-22T06:06:59;0.10;;;0.10;;
9643;SDS011;4860;50.900;4.720;2023-07-22T06:09:25;0.10;;;0.10;;
9643;SDS011;4860;50.900;4.720;2023-07-22T06:11:51;0.10;;;0.10;;
9643;SDS011;4860;50.900;4.720;2023-07-22T06:14:17;0.10;;;0.10;;
9643;SDS011;4860;50.900;4.720;2023-07-22T06:16:44;0.10;;;0.10;;
9643;SDS011;4860;50.900;4.720;2023-07-22T06:19:10;0.10;;;0.10;;
9643;SDS011;4860;50.900;4.720;2023-07-22T06:21:36;0.10;;;0.10;;
9643;SDS011;4860;50.900;4.720;2023-07-22T06:24:02;0.10;;;0.10;;
9643;SDS011;4860;50.900;4.720;2023-07-22T06:26:28;0.10;;;0.10;;
9643;SDS011;4860;50.900;4.720;2023-07-22T06:28:54;0.10;;;0.10;;
9643;SDS011;4860;50.900;4.720;2023-07-22T06:31:20;0.10;;;0.10;;
9643;SDS011;4860;50.900;4.720;2023-07-22T06:33:47;0.10;;;0.10;;
9643;SDS011;4860;50.900;4.720;2023-07-22T06:36:13;0.00;;;0.00;;
9643;SDS011;4860;50.900;4.720;2023-07-22T06:38:39;0.10;;;0.10;;
9643;SDS011;4860;50.900;4.720;2023-07-22T06:41:05;0.10;;;0.10;;
9643;SDS011;4860;50.900;4.720;2023-07-22T06:43:32;0.10;;;0.10;;
9643;SDS011;4860;50.900;4.720;2023-07-22T06:45:58;0.10;;;0.10;;
9643;SDS011;4860;50.900;4.720;2023-07-22T06:48:25;0.10;;;0.10;;
9643;SDS011;4860;50.900;4.720;2023-07-22T06:50:51;0.00;;;0.00;;
9643;SDS011;4860;50.900;4.720;2023-07-22T06:53:17;0.10;;;0.10;;
9643;SDS011;4860;50.900;4.720;2023-07-22T06:55:50;0.10;;;0.10;;
9643;SDS011;4860;50.900;4.720;2023-07-22T06:58:16;0.05;;;0.05;;
9643;SDS011;4860;50.900;4.720;2023-07-22T07:00:42;0.10;;;0.10;;
9643;SDS011;4860;50.900;4.720;2023-07-22T07:03:08;0.05;;;0.05;;
9643;SDS011;4860;50.900;4.720;2023-07-22T07:05:35;0.10;;;0.10;;
9643;SDS011;4860;50.900;4.720;2023-07-22T07:08:01;0.10;;;0.10;;
9643;SDS011;4860;50.900;4.720;2023-07-22T07:10:27;0.00;;;0.00;;
9643;SDS011;4860;50.900;4.720;2023-07-22T07:12:53;0.10;;;0.10;;
9643;SDS011;4860;50.900;4.720;2023-07-22T07:15:19;0.00;;;0.00;;
9643;SDS011;4860;50.900;4.720;2023-07-22T07:17:45;0.10;;;0.10;;
9643;SDS011;4860;50.900;4.720;2023-07-22T07:20:13;0.00;;;0.00;;
9643;SDS011;4860;50.900;4.720;2023-07-22T07:22:40;0.10;;;0.10;;
9643;SDS011;4860;50.900;4.720;2023-07-22T07:25:06;0.10;;;0.10;;
9643;SDS011;4860;50.900;4.720;2023-07-22T07:27:32;0.10;;;0.10;;
9643;SDS011;4860;50.900;4.720;2023-07-22T07:29:58;0.10;;;0.10;;
9643;SDS011;4860;50.900;4.720;2023-07-22T07:32:24;0.10;;;0.10;;
9643;SDS011;4860;50.900;4.720;2023-07-22T07:34:50;0.10;;;0.10;;
9643;SDS011;4860;50.900;4.720;2023-07-22T07:37:17;0.00;;;0.00;;
9643;SDS011;4860;50.900;4.720;2023-07-22T07:39:43;0.10;;;0.10;;
9643;SDS011;4860;50.900;4.720;2023-07-22T07:42:09;0.00;;;0.00;;
9643;SDS011;4860;50.900;4.720;2023-07-22T07:44:35;0.10;;;0.10;;
9643;SDS011;4860;50.900;4.720;2023-07-22T07:47:02;0.10;;;0.10;;
9643;SDS011;4860;50.900;4.720;2023-07-22T07:49:28;0.00;;;0.00;;
9643;SDS011;4860;50.900;4.720;2023-07-22T07:51:54;0.03;;;0.03;;
9643;SDS011;4860;50.900;4.720;2023-07-22T07:54:21;0.05;;;0.05;;
9643;SDS011;4860;50.900;4.720;2023-07-22T07:56:48;0.10;;;0.10;;
9643;SDS011;4860;50.900;4.720;2023-07-22T07:59:14;0.10;;;0.10;;
9643;SDS011;4860;50.900;4.720;2023-07-22T08:01:40;0.00;;;0.00;;
9643;SDS011;4860;50.900;4.720;2023-07-22T08:04:09;0.00;;;0.00;;
9643;SDS011;4860;50.900;4.720;2023-07-22T08:06:36;0.10;;;0.10;;
9643;SDS011;4860;50.900;4.720;2023-07-22T08:09:03;0.08;;;0.08;;
9643;SDS011;4860;50.900;4.720;2023-07-22T08:11:30;0.10;;;0.10;;
9643;SDS011;4860;50.900;4.720;2023-07-22T08:13:57;0.10;;;0.10;;
9643;SDS011;4860;50.900;4.720;2023-07-22T08:16:23;0.03;;;0.03;;
9643;SDS011;4860;50.900;4.720;2023-07-22T08:18:49;0.10;;;0.10;;
9643;SDS011;4860;50.900;4.720;2023-07-22T08:21:16;0.10;;;0.10;;
9643;SDS011;4860;50.900;4.720;2023-07-22T08:23:42;0.10;;;0.10;;
9643;SDS011;4860;50.900;4.720;2023-07-22T08:26:11;0.10;;;0.10;;
9643;SDS011;4860;50.900;4.720;2023-07-22T08:28:37;0.10;;;0.10;;
9643;SDS011;4860;50.900;4.720;2023-07-22T08:31:03;0.10;;;0.10;;
9643;SDS011;4860;50.900;4.720;2023-07-22T08:33:30;0.10;;;0.10;;
9643;SDS011;4860;50.900;4.720;2023-07-22T08:35:56;0.05;;;0.05;;
9643;SDS011;4860;50.900;4.720;2023-07-22T08:38:22;0.10;;;0.10;;
9643;SDS011;4860;50.900;4.720;2023-07-22T08:40:49;0.10;;;0.10;;
9643;SDS011;4860;50.900;4.720;2023-07-22T08:43:16;0.10;;;0.10;;
9643;SDS011;4860;50.900;4.720;2023-07-22T08:45:44;0.00;;;0.00;;
9643;SDS011;4860;50.900;4.720;2023-07-22T08:48:12;0.00;;;0.00;;
9643;SDS011;4860;50.900;4.720;2023-07-22T08:50:59;0.00;;;0.00;;
9643;SDS011;4860;50.900;4.720;2023-07-22T08:53:28;0.00;;;0.00;;
9643;SDS011;4860;50.900;4.720;2023-07-22T08:55:55;0.10;;;0.10;;
9643;SDS011;4860;50.900;4.720;2023-07-22T08:58:21;0.03;;;0.03;;
9643;SDS011;4860;50.900;4.720;2023-07-22T09:00:48;0.10;;;0.10;;
9643;SDS011;4860;50.900;4.720;2023-07-22T09:03:14;0.10;;;0.10;;
9643;SDS011;4860;50.900;4.720;2023-07-22T09:05:40;0.10;;;0.10;;
9643;SDS011;4860;50.900;4.720;2023-07-22T09:08:07;0.00;;;0.00;;
9643;SDS011;4860;50.900;4.720;2023-07-22T09:10:34;0.00;;;0.00;;
9643;SDS011;4860;50.900;4.720;2023-07-22T09:13:01;0.00;;;0.00;;
9643;SDS011;4860;50.900;4.720;2023-07-22T09:15:27;0.00;;;0.00;;
9643;SDS011;4860;50.900;4.720;2023-07-22T09:17:54;0.10;;;0.10;;
9643;SDS011;4860;50.900;4.720;2023-07-22T09:20:20;0.08;;;0.08;;
9643;SDS011;4860;50.900;4.720;2023-07-22T09:22:51;0.00;;;0.00;;
9643;SDS011;4860;50.900;4.720;2023-07-22T09:25:18;0.10;;;0.10;;
9643;SDS011;4860;50.900;4.720;2023-07-22T09:27:52;0.10;;;0.10;;
9643;SDS011;4860;50.900;4.720;2023-07-22T09:32:51;0.00;;;0.00;;
9643;SDS011;4860;50.900;4.720;2023-07-22T09:35:18;0.03;;;0.03;;
9643;SDS011;4860;50.900;4.720;2023-07-22T09:37:44;0.00;;;0.00;;
9643;SDS011;4860;50.900;4.720;2023-07-22T09:40:18;0.00;;;0.00;;
9643;SDS011;4860;50.900;4.720;2023-07-22T09:42:48;0.00;;;0.00;;
9643;SDS011;4860;50.900;4.720;2023-07-22T09:45:15;0.00;;;0.00;;
9643;SDS011;4860;50.900;4.720;2023-07-22T09:47:44;0.00;;;0.00;;
9643;SDS011;4860;50.900;4.720;2023-07-22T09:50:15;0.00;;;0.00;;
9643;SDS011;4860;50.900;4.720;2023-07-22T09:52:45;0.10;;;0.10;;
9643;SDS011;4860;50.900;4.720;2023-07-22T09:55:12;0.10;;;0.10;;
9643;SDS011;4860;50.900;4.720;2023-07-22T09:57:44;0.00;;;0.00;;
9643;SDS011;4860;50.900;4.720;2023-07-22T10:00:11;0.00;;;0.00;;
9643;SDS011;4860;50.900;4.720;2023-07-22T10:02:39;0.00;;;0.00;;
9643;SDS011;4860;50.900;4.720;2023-07-22T10:05:07;0.00;;;0.00;;
9643;SDS011;4860;50.900;4.720;2023-07-22T10:07:34;0.00;;;0.00;;
9643;SDS011;4860;50.900;4.720;2023-07-22T10:10:01;0.00;;;0.00;;
9643;SDS011;4860;50.900;4.720;2023-07-22T10:12:27;0.00;;;0.00;;
9643;SDS011;4860;50.900;4.720;2023-07-22T10:14:54;0.00;;;0.00;;
9643;SDS011;4860;50.900;4.720;2023-07-22T10:17:20;0.00;;;0.00;;
9643;SDS011;4860;50.900;4.720;2023-07-22T10:19:47;0.00;;;0.00;;
9643;SDS011;4860;50.900;4.720;2023-07-22T10:22:13;0.10;;;0.10;;
9643;SDS011;4860;50.900;4.720;2023-07-22T10:24:39;0.10;;;0.10;;
9643;SDS011;4860;50.900;4.720;2023-07-22T10:27:06;0.00;;;0.00;;
9643;SDS011;4860;50.900;4.720;2023-07-22T10:29:33;0.00;;;0.00;;
9643;SDS011;4860;50.900;4.720;2023-07-22T10:31:59;0.00;;;0.00;;
9643;SDS011;4860;50.900;4.720;2023-07-22T10:34:26;0.00;;;0.00;;
9643;SDS011;4860;50.900;4.720;2023-07-22T10:36:53;0.10;;;0.10;;
9643;SDS011;4860;50.900;4.720;2023-07-22T10:39:24;0.00;;;0.00;;
9643;SDS011;4860;50.900;4.720;2023-07-22T10:42:00;0.00;;;0.00;;
9643;SDS011;4860;50.900;4.720;2023-07-22T10:44:30;0.00;;;0.00;;
9643;SDS011;4860;50.900;4.720;2023-07-22T10:46:57;0.00;;;0.00;;
9643;SDS011;4860;50.900;4.720;2023-07-22T10:49:24;0.10;;;0.10;;
9643;SDS011;4860;50.900;4.720;2023-07-22T10:51:53;0.00;;;0.00;;
9643;SDS011;4860;50.900;4.720;2023-07-22T10:54:32;0.00;;;0.00;;
9643;SDS011;4860;50.900;4.720;2023-07-22T10:57:41;0.10;;;0.10;;
9643;SDS011;4860;50.900;4.720;2023-07-22T10:59:51;0.10;;;0.10;;
9643;SDS011;4860;50.900;4.720;2023-07-22T11:02:28;0.00;;;0.00;;
9643;SDS011;4860;50.900;4.720;2023-07-22T11:05:01;0.00;;;0.00;;
9643;SDS011;4860;50.900;4.720;2023-07-22T11:07:31;0.10;;;0.10;;
9643;SDS011;4860;50.900;4.720;2023-07-22T11:09:58;0.00;;;0.00;;
9643;SDS011;4860;50.900;4.720;2023-07-22T11:12:36;0.00;;;0.00;;
9643;SDS011;4860;50.900;4.720;2023-07-22T11:15:05;0.10;;;0.10;;
9643;SDS011;4860;50.900;4.720;2023-07-22T11:17:31;0.00;;;0.00;;
9643;SDS011;4860;50.900;4.720;2023-07-22T11:19:58;0.00;;;0.00;;
9643;SDS011;4860;50.900;4.720;2023-07-22T11:22:25;0.00;;;0.00;;
9643;SDS011;4860;50.900;4.720;2023-07-22T11:24:54;0.00;;;0.00;;
9643;SDS011;4860;50.900;4.720;2023-07-22T11:27:21;0.00;;;0.00;;
9643;SDS011;4860;50.900;4.720;2023-07-22T11:29:50;0.00;;;0.00;;
9643;SDS011;4860;50.900;4.720;2023-07-22T11:32:17;0.00;;;0.00;;
9643;SDS011;4860;50.900;4.720;2023-07-22T11:34:44;0.00;;;0.00;;
9643;SDS011;4860;50.900;4.720;2023-07-22T11:37:10;0.00;;;0.00;;
9643;SDS011;4860;50.900;4.720;2023-07-22T11:39:36;0.00;;;0.00;;
9643;SDS011;4860;50.900;4.720;2023-07-22T11:42:03;0.00;;;0.00;;
9643;SDS011;4860;50.900;4.720;2023-07-22T11:44:30;0.00;;;0.00;;
9643;SDS011;4860;50.900;4.720;2023-07-22T11:49:32;0.00;;;0.00;;
9643;SDS011;4860;50.900;4.720;2023-07-22T11:52:03;0.00;;;0.00;;
9643;SDS011;4860;50.900;4.720;2023-07-22T11:54:29;0.00;;;0.00;;
9643;SDS011;4860;50.900;4.720;2023-07-22T11:56:56;0.00;;;0.00;;
9643;SDS011;4860;50.900;4.720;2023-07-22T11:59:32;0.10;;;0.10;;
9643;SDS011;4860;50.900;4.720;2023-07-22T12:01:59;0.00;;;0.00;;
9643;SDS011;4860;50.900;4.720;2023-07-22T12:04:26;0.00;;;0.00;;
9643;SDS011;4860;50.900;4.720;2023-07-22T12:06:53;0.00;;;0.00;;
9643;SDS011;4860;50.900;4.720;2023-07-22T12:09:19;0.00;;;0.00;;
9643;SDS011;4860;50.900;4.720;2023-07-22T12:11:45;0.00;;;0.00;;
9643;SDS011;4860;50.900;4.720;2023-07-22T12:14:14;0.00;;;0.00;;
9643;SDS011;4860;50.900;4.720;2023-07-22T12:16:41;0.00;;;0.00;;
9643;SDS011;4860;50.900;4.720;2023-07-22T12:19:08;0.00;;;0.00;;
9643;SDS011;4860;50.900;4.720;2023-07-22T12:21:35;0.00;;;0.00;;
9643;SDS011;4860;50.900;4.720;2023-07-22T12:24:01;0.00;;;0.00;;
9643;SDS011;4860;50.900;4.720;2023-07-22T12:26:29;0.00;;;0.00;;
9643;SDS011;4860;50.900;4.720;2023-07-22T12:28:55;0.00;;;0.00;;
9643;SDS011;4860;50.900;4.720;2023-07-22T12:31:21;0.00;;;0.00;;
9643;SDS011;4860;50.900;4.720;2023-07-22T12:33:48;0.00;;;0.00;;
9643;SDS011;4860;50.900;4.720;2023-07-22T12:36:14;0.00;;;0.00;;
9643;SDS011;4860;50.900;4.720;2023-07-22T12:38:40;0.00;;;0.00;;
9643;SDS011;4860;50.900;4.720;2023-07-22T12:41:06;0.00;;;0.00;;
9643;SDS011;4860;50.900;4.720;2023-07-22T12:43:32;0.00;;;0.00;;
9643;SDS011;4860;50.900;4.720;2023-07-22T12:45:58;0.00;;;0.00;;
9643;SDS011;4860;50.900;4.720;2023-07-22T12:48:25;0.00;;;0.00;;
9643;SDS011;4860;50.900;4.720;2023-07-22T12:50:51;0.00;;;0.00;;
9643;SDS011;4860;50.900;4.720;2023-07-22T12:53:17;0.00;;;0.00;;
9643;SDS011;4860;50.900;4.720;2023-07-22T12:55:43;0.00;;;0.00;;
9643;SDS011;4860;50.900;4.720;2023-07-22T12:58:09;0.00;;;0.00;;
9643;SDS011;4860;50.900;4.720;2023-07-22T13:00:35;0.00;;;0.00;;
9643;SDS011;4860;50.900;4.720;2023-07-22T13:03:02;0.00;;;0.00;;
9643;SDS011;4860;50.900;4.720;2023-07-22T13:05:28;0.00;;;0.00;;
9643;SDS011;4860;50.900;4.720;2023-07-22T13:07:54;0.00;;;0.00;;
9643;SDS011;4860;50.900;4.720;2023-07-22T13:10:20;0.00;;;0.00;;
9643;SDS011;4860;50.900;4.720;2023-07-22T13:12:47;0.00;;;0.00;;
9643;SDS011;4860;50.900;4.720;2023-07-22T13:15:13;0.00;;;0.00;;
9643;SDS011;4860;50.900;4.720;2023-07-22T13:17:40;0.00;;;0.00;;
9643;SDS011;4860;50.900;4.720;2023-07-22T13:20:06;0.00;;;0.00;;
9643;SDS011;4860;50.900;4.720;2023-07-22T13:22:34;0.00;;;0.00;;
9643;SDS011;4860;50.900;4.720;2023-07-22T13:25:01;0.00;;;0.00;;
9643;SDS011;4860;50.900;4.720;2023-07-22T13:27:27;0.00;;;0.00;;
9643;SDS011;4860;50.900;4.720;2023-07-22T13:29:53;0.00;;;0.00;;
9643;SDS011;4860;50.900;4.720;2023-07-22T13:32:19;0.00;;;0.00;;
9643;SDS011;4860;50.900;4.720;2023-07-22T13:34:45;0.00;;;0.00;;
9643;SDS011;4860;50.900;4.720;2023-07-22T13:37:11;0.00;;;0.00;;
9643;SDS011;4860;50.900;4.720;2023-07-22T13:39:37;0.00;;;0.00;;
9643;SDS011;4860;50.900;4.720;2023-07-22T13:42:03;0.00;;;0.00;;
9643;SDS011;4860;50.900;4.720;2023-07-22T13:44:30;0.00;;;0.00;;
9643;SDS011;4860;50.900;4.720;2023-07-22T13:46:56;0.00;;;0.00;;
9643;SDS011;4860;50.900;4.720;2023-07-22T13:49:22;0.00;;;0.00;;
9643;SDS011;4860;50.900;4.720;2023-07-22T13:51:48;0.00;;;0.00;;
9643;SDS011;4860;50.900;4.720;2023-07-22T13:54:14;0.00;;;0.00;;
9643;SDS011;4860;50.900;4.720;2023-07-22T13:56:41;0.00;;;0.00;;
9643;SDS011;4860;50.900;4.720;2023-07-22T13:59:09;0.00;;;0.00;;
9643;SDS011;4860;50.900;4.720;2023-07-22T14:01:35;0.00;;;0.00;;
9643;SDS011;4860;50.900;4.720;2023-07-22T14:04:01;0.00;;;0.00;;
9643;SDS011;4860;50.900;4.720;2023-07-22T14:06:27;0.00;;;0.00;;
9643;SDS011;4860;50.900;4.720;2023-07-22T14:08:53;0.00;;;0.00;;
9643;SDS011;4860;50.900;4.720;2023-07-22T14:11:19;0.00;;;0.00;;
9643;SDS011;4860;50.900;4.720;2023-07-22T14:13:45;0.00;;;0.00;;
9643;SDS011;4860;50.900;4.720;2023-07-22T14:16:11;0.00;;;0.00;;
9643;SDS011;4860;50.900;4.720;2023-07-22T14:18:37;0.00;;;0.00;;
9643;SDS011;4860;50.900;4.720;2023-07-22T14:21:04;0.00;;;0.00;;
9643;SDS011;4860;50.900;4.720;2023-07-22T14:23:30;0.00;;;0.00;;
9643;SDS011;4860;50.900;4.720;2023-07-22T14:25:56;0.00;;;0.00;;
9643;SDS011;4860;50.900;4.720;2023-07-22T14:28:22;0.00;;;0.00;;
9643;SDS011;4860;50.900;4.720;2023-07-22T14:30:48;0.00;;;0.00;;
9643;SDS011;4860;50.900;4.720;2023-07-22T14:33:14;0.00;;;0.00;;
9643;SDS011;4860;50.900;4.720;2023-07-22T14:35:40;0.00;;;0.00;;
9643;SDS011;4860;50.900;4.720;2023-07-22T14:38:07;0.00;;;0.00;;
9643;SDS011;4860;50.900;4.720;2023-07-22T14:40:33;0.00;;;0.00;;
9643;SDS011;4860;50.900;4.720;2023-07-22T14:42:59;0.00;;;0.00;;
9643;SDS011;4860;50.900;4.720;2023-07-22T14:45:25;0.00;;;0.00;;
9643;SDS011;4860;50.900;4.720;2023-07-22T14:47:51;0.00;;;0.00;;
9643;SDS011;4860;50.900;4.720;2023-07-22T14:50:18;0.00;;;0.00;;
9643;SDS011;4860;50.900;4.720;2023-07-22T14:52:44;0.00;;;0.00;;
9643;SDS011;4860;50.900;4.720;2023-07-22T14:55:10;0.00;;;0.00;;
9643;SDS011;4860;50.900;4.720;2023-07-22T14:57:36;0.00;;;0.00;;
9643;SDS011;4860;50.900;4.720;2023-07-22T15:00:02;0.00;;;0.00;;
9643;SDS011;4860;50.900;4.720;2023-07-22T15:02:29;0.00;;;0.00;;
9643;SDS011;4860;50.900;4.720;2023-07-22T15:04:55;0.00;;;0.00;;
9643;SDS011;4860;50.900;4.720;2023-07-22T15:07:21;0.00;;;0.00;;
9643;SDS011;4860;50.900;4.720;2023-07-22T15:09:48;0.00;;;0.00;;
9643;SDS011;4860;50.900;4.720;2023-07-22T15:12:14;0.00;;;0.00;;
9643;SDS011;4860;50.900;4.720;2023-07-22T15:14:40;0.00;;;0.00;;
9643;SDS011;4860;50.900;4.720;2023-07-22T15:17:06;0.00;;;0.00;;